createdAt,value
2023-12-05T00:00:09.651Z,14
2023-12-05T00:01:09.644Z,14
2023-12-05T00:03:09.728Z,15
2023-12-05T00:04:09.790Z,12
2023-12-05T00:05:09.728Z,14
2023-12-05T00:06:09.624Z,14
2023-12-05T00:07:09.682Z,12
2023-12-05T00:08:09.640Z,14
2023-12-05T00:09:09.624Z,11
2023-12-05T00:10:09.680Z,14
2023-12-05T00:11:09.624Z,13
2023-12-05T00:12:09.621Z,15
2023-12-05T00:13:09.635Z,12
2023-12-05T00:14:09.667Z,16
2023-12-05T00:15:09.753Z,13
2023-12-05T00:16:10.977Z,14
2023-12-05T00:17:09.637Z,11
2023-12-05T00:18:09.705Z,13
2023-12-05T00:19:09.729Z,13
2023-12-05T00:20:09.683Z,16
2023-12-05T00:21:09.629Z,14
2023-12-05T00:22:09.649Z,14
2023-12-05T00:23:09.634Z,17
2023-12-05T00:24:09.627Z,15
2023-12-05T00:25:09.628Z,14
2023-12-05T00:27:11.278Z,15
2023-12-05T00:28:09.641Z,14
2023-12-05T00:29:09.638Z,14
2023-12-05T00:30:09.662Z,15
2023-12-05T00:31:09.619Z,13
2023-12-05T00:32:09.645Z,16
2023-12-05T00:33:09.686Z,13
2023-12-05T00:34:09.729Z,13
2023-12-05T00:35:09.638Z,14
2023-12-05T00:36:09.734Z,15
2023-12-05T00:37:09.769Z,12
2023-12-05T00:38:09.621Z,13
2023-12-05T00:39:09.635Z,11
2023-12-05T00:40:09.648Z,13
2023-12-05T00:42:09.660Z,12
2023-12-05T00:43:09.621Z,15
2023-12-05T00:44:09.642Z,14
2023-12-05T00:45:09.629Z,14
2023-12-05T00:47:09.630Z,13
2023-12-05T00:48:09.753Z,14
2023-12-05T00:49:09.746Z,15
2023-12-05T00:50:09.624Z,14
2023-12-05T00:51:09.642Z,13
2023-12-05T00:52:09.670Z,14
2023-12-05T00:53:09.619Z,15
2023-12-05T00:54:10.392Z,14
2023-12-05T00:55:09.652Z,12
2023-12-05T00:57:09.642Z,13
2023-12-05T00:58:09.618Z,13
2023-12-05T00:59:09.659Z,13
2023-12-05T01:00:09.606Z,15
2023-12-05T01:01:09.620Z,16
2023-12-05T01:02:09.674Z,11
2023-12-05T01:03:09.764Z,15
2023-12-05T01:04:09.726Z,15
2023-12-05T01:05:09.811Z,12
2023-12-05T01:06:09.674Z,12
2023-12-05T01:07:09.639Z,14
2023-12-05T01:08:09.636Z,16
2023-12-05T01:09:09.645Z,13
2023-12-05T01:10:09.709Z,13
2023-12-05T01:11:09.620Z,13
2023-12-05T01:12:09.644Z,15
2023-12-05T01:13:09.623Z,13
2023-12-05T01:14:09.642Z,14
2023-12-05T01:15:09.621Z,13
2023-12-05T01:16:09.646Z,12
2023-12-05T01:17:09.665Z,15
2023-12-05T01:18:09.731Z,14
2023-12-05T01:19:09.699Z,10
2023-12-05T01:20:09.618Z,14
2023-12-05T01:21:09.612Z,15
2023-12-05T01:22:09.623Z,11
2023-12-05T01:23:09.623Z,12
2023-12-05T01:24:09.625Z,13
2023-12-05T01:25:09.666Z,13
2023-12-05T01:27:09.628Z,12
2023-12-05T01:28:09.636Z,13
2023-12-05T01:29:09.641Z,13
2023-12-05T01:30:09.631Z,14
2023-12-05T01:31:09.624Z,13
2023-12-05T01:32:09.611Z,11
2023-12-05T01:33:09.615Z,12
2023-12-05T01:34:09.746Z,11
2023-12-05T01:35:09.618Z,16
2023-12-05T01:36:09.624Z,13
2023-12-05T01:37:09.619Z,13
2023-12-05T01:38:09.654Z,15
2023-12-05T01:39:09.613Z,14
2023-12-05T01:40:09.630Z,13
2023-12-05T01:41:09.615Z,12
2023-12-05T01:42:09.627Z,14
2023-12-05T01:43:09.643Z,11
2023-12-05T01:44:09.629Z,13
2023-12-05T01:45:09.718Z,13
2023-12-05T01:46:09.615Z,12
2023-12-05T01:47:09.611Z,13
2023-12-05T01:48:09.716Z,13
2023-12-05T01:49:14.906Z,13
2023-12-05T01:50:09.786Z,12
2023-12-05T01:51:09.651Z,14
2023-12-05T01:52:09.614Z,10
2023-12-05T01:53:09.640Z,13
2023-12-05T01:54:09.709Z,11
2023-12-05T01:55:09.641Z,12
2023-12-05T01:56:09.678Z,12
2023-12-05T01:57:09.629Z,12
2023-12-05T01:58:09.649Z,14
2023-12-05T01:59:09.620Z,13
2023-12-05T02:00:09.724Z,12
2023-12-05T02:01:09.622Z,12
2023-12-05T02:02:09.653Z,13
2023-12-05T02:03:09.730Z,12
2023-12-05T02:04:09.779Z,15
2023-12-05T02:05:09.767Z,12
2023-12-05T02:06:09.659Z,12
2023-12-05T02:07:09.612Z,10
2023-12-05T02:08:09.648Z,12
2023-12-05T02:09:09.608Z,13
2023-12-05T02:10:09.634Z,13
2023-12-05T02:11:09.676Z,12
2023-12-05T02:12:09.656Z,14
2023-12-05T02:13:09.688Z,12
2023-12-05T02:14:09.625Z,12
2023-12-05T02:15:09.633Z,13
2023-12-05T02:16:09.632Z,11
2023-12-05T02:17:09.622Z,11
2023-12-05T02:18:09.775Z,11
2023-12-05T02:19:09.736Z,12
2023-12-05T02:20:09.615Z,13
2023-12-05T02:21:09.604Z,13
2023-12-05T02:22:09.634Z,11
2023-12-05T02:23:09.614Z,11
2023-12-05T02:24:09.627Z,10
2023-12-05T02:25:09.629Z,11
2023-12-05T02:26:09.625Z,11
2023-12-05T02:27:09.636Z,11
2023-12-05T02:28:09.614Z,11
2023-12-05T02:29:09.642Z,11
2023-12-05T02:30:09.631Z,11
2023-12-05T02:31:09.621Z,10
2023-12-05T02:32:09.608Z,12
2023-12-05T02:33:09.700Z,12
2023-12-05T02:34:09.738Z,10
2023-12-05T02:35:09.617Z,13
2023-12-05T02:36:09.631Z,10
2023-12-05T02:37:09.664Z,12
2023-12-05T02:38:09.626Z,11
2023-12-05T02:39:09.612Z,10
2023-12-05T02:40:09.620Z,12
2023-12-05T02:41:09.625Z,11
2023-12-05T02:42:09.631Z,11
2023-12-05T02:43:09.619Z,10
2023-12-05T02:44:09.666Z,9
2023-12-05T02:45:09.669Z,10
2023-12-05T02:46:10.261Z,10
2023-12-05T02:47:09.608Z,10
2023-12-05T02:48:09.678Z,11
2023-12-05T02:49:09.763Z,10
2023-12-05T02:50:09.628Z,11
2023-12-05T02:51:09.629Z,8
2023-12-05T02:52:09.613Z,10
2023-12-05T02:53:09.604Z,10
2023-12-05T02:54:09.620Z,10
2023-12-05T02:55:09.630Z,10
2023-12-05T02:57:09.613Z,11
2023-12-05T02:58:09.613Z,10
2023-12-05T02:59:09.617Z,11
2023-12-05T03:00:09.643Z,8
2023-12-05T03:01:09.629Z,9
2023-12-05T03:02:09.619Z,10
2023-12-05T03:03:09.664Z,9
2023-12-05T03:04:09.925Z,11
2023-12-05T03:05:09.660Z,9
2023-12-05T03:06:09.673Z,9
2023-12-05T03:07:09.677Z,9
2023-12-05T03:08:09.598Z,8
2023-12-05T03:09:09.616Z,10
2023-12-05T03:10:09.625Z,9
2023-12-05T03:11:10.212Z,10
2023-12-05T03:12:09.619Z,9
2023-12-05T03:13:09.644Z,10
2023-12-05T03:14:09.645Z,10
2023-12-05T03:15:09.614Z,9
2023-12-05T03:16:09.661Z,8
2023-12-05T03:17:09.661Z,9
2023-12-05T03:18:09.662Z,8
2023-12-05T03:19:09.742Z,9
2023-12-05T03:20:09.629Z,8
2023-12-05T03:21:09.598Z,9
2023-12-05T03:22:09.656Z,8
2023-12-05T03:23:09.633Z,9
2023-12-05T03:24:09.630Z,8
2023-12-05T03:25:09.629Z,8
2023-12-05T03:27:09.624Z,8
2023-12-05T03:28:09.651Z,8
2023-12-05T03:29:09.645Z,10
2023-12-05T03:30:09.628Z,9
2023-12-05T03:31:09.634Z,7
2023-12-05T03:32:09.614Z,7
2023-12-05T03:33:09.705Z,8
2023-12-05T03:34:09.706Z,9
2023-12-05T03:35:09.612Z,8
2023-12-05T03:36:09.629Z,8
2023-12-05T03:37:09.619Z,10
2023-12-05T03:38:09.616Z,8
2023-12-05T03:39:09.678Z,7
2023-12-05T03:40:09.613Z,9
2023-12-05T03:41:09.598Z,8
2023-12-05T03:42:09.613Z,8
2023-12-05T03:43:09.600Z,9
2023-12-05T03:44:09.692Z,8
2023-12-05T03:45:09.647Z,8
2023-12-05T03:46:09.626Z,9
2023-12-05T03:47:09.601Z,8
2023-12-05T03:48:09.686Z,8
2023-12-05T03:49:09.688Z,7
2023-12-05T03:50:09.622Z,8
2023-12-05T03:51:09.614Z,9
2023-12-05T03:52:09.655Z,6
2023-12-05T03:53:09.612Z,8
2023-12-05T03:54:09.612Z,8
2023-12-05T03:55:09.607Z,8
2023-12-05T03:57:09.618Z,7
2023-12-05T03:58:09.624Z,7
2023-12-05T03:59:09.623Z,8
2023-12-05T04:00:09.624Z,9
2023-12-05T04:01:09.622Z,8
2023-12-05T04:02:09.656Z,8
2023-12-05T04:03:09.624Z,7
2023-12-05T04:04:09.757Z,7
2023-12-05T04:05:09.711Z,8
2023-12-05T04:06:09.662Z,8
2023-12-05T04:07:09.628Z,7
2023-12-05T04:08:09.676Z,8
2023-12-05T04:09:09.600Z,7
2023-12-05T04:10:09.630Z,7
2023-12-05T04:12:09.609Z,8
2023-12-05T04:13:09.624Z,8
2023-12-05T04:14:09.609Z,8
2023-12-05T04:15:09.610Z,6
2023-12-05T04:16:09.613Z,7
2023-12-05T04:17:09.692Z,8
2023-12-05T04:18:09.709Z,8
2023-12-05T04:19:09.722Z,7
2023-12-05T04:20:09.609Z,9
2023-12-05T04:21:09.608Z,9
2023-12-05T04:22:09.620Z,7
2023-12-05T04:23:09.616Z,9
2023-12-05T04:24:09.639Z,9
2023-12-05T04:25:09.610Z,8
2023-12-05T04:26:09.606Z,8
2023-12-05T04:27:09.604Z,8
2023-12-05T04:28:09.615Z,8
2023-12-05T04:29:09.673Z,8
2023-12-05T04:30:09.627Z,9
2023-12-05T04:31:09.602Z,8
2023-12-05T04:32:09.596Z,7
2023-12-05T04:33:09.638Z,8
2023-12-05T04:34:09.730Z,7
2023-12-05T04:35:09.677Z,7
2023-12-05T04:36:09.625Z,9
2023-12-05T04:37:09.639Z,6
2023-12-05T04:38:09.633Z,8
2023-12-05T04:39:09.611Z,8
2023-12-05T04:40:09.733Z,7
2023-12-05T04:42:09.621Z,8
2023-12-05T04:43:09.632Z,9
2023-12-05T04:44:09.620Z,6
2023-12-05T04:45:09.790Z,7
2023-12-05T04:46:09.690Z,8
2023-12-05T04:47:09.611Z,8
2023-12-05T04:48:09.671Z,7
2023-12-05T04:49:11.037Z,8
2023-12-05T04:50:09.841Z,7
2023-12-05T04:51:09.644Z,9
2023-12-05T04:52:09.610Z,9
2023-12-05T04:53:09.610Z,8
2023-12-05T04:54:09.650Z,8
2023-12-05T04:55:09.621Z,8
2023-12-05T04:57:09.630Z,8
2023-12-05T04:58:09.632Z,6
2023-12-05T04:59:09.640Z,7
2023-12-05T05:00:09.608Z,7
2023-12-05T05:01:09.654Z,7
2023-12-05T05:02:09.661Z,9
2023-12-05T05:03:09.714Z,7
2023-12-05T05:04:09.836Z,7
2023-12-05T05:05:09.830Z,7
2023-12-05T05:06:09.719Z,8
2023-12-05T05:07:09.675Z,7
2023-12-05T05:08:09.627Z,7
2023-12-05T05:09:09.612Z,8
2023-12-05T05:10:09.633Z,7
2023-12-05T05:11:09.602Z,11
2023-12-05T05:12:09.600Z,9
2023-12-05T05:13:09.619Z,12
2023-12-05T05:14:09.642Z,18
2023-12-05T05:15:09.603Z,12
2023-12-05T05:16:09.619Z,12
2023-12-05T05:18:09.649Z,9
2023-12-05T05:19:09.767Z,7
2023-12-05T05:20:09.593Z,9
2023-12-05T05:21:09.604Z,8
2023-12-05T05:22:09.629Z,7
2023-12-05T05:23:09.610Z,8
2023-12-05T05:24:09.689Z,8
2023-12-05T05:25:09.834Z,8
2023-12-05T05:26:09.597Z,7
2023-12-05T05:27:09.600Z,7
2023-12-05T05:28:09.627Z,7
2023-12-05T05:29:10.009Z,7
2023-12-05T05:30:09.630Z,8
2023-12-05T05:31:09.592Z,8
2023-12-05T05:32:09.625Z,7
2023-12-05T05:33:09.718Z,7
2023-12-05T05:34:09.690Z,6
2023-12-05T05:35:09.607Z,8
2023-12-05T05:36:09.619Z,9
2023-12-05T05:37:09.608Z,8
2023-12-05T05:38:09.607Z,7
2023-12-05T05:39:09.603Z,7
2023-12-05T05:40:09.601Z,9
2023-12-05T05:41:09.610Z,8
2023-12-05T05:42:09.609Z,7
2023-12-05T05:43:09.616Z,8
2023-12-05T05:44:09.621Z,7
2023-12-05T05:45:09.601Z,7
2023-12-05T05:46:09.591Z,8
2023-12-05T05:47:09.600Z,7
2023-12-05T05:48:09.647Z,7
2023-12-05T05:49:10.187Z,9
2023-12-05T05:50:09.601Z,7
2023-12-05T05:51:09.617Z,6
2023-12-05T05:52:09.616Z,6
2023-12-05T05:54:09.638Z,6
2023-12-05T05:55:09.592Z,7
2023-12-05T05:56:09.598Z,7
2023-12-05T05:57:09.613Z,7
2023-12-05T05:58:09.612Z,6
2023-12-05T05:59:09.625Z,6
2023-12-05T06:00:09.612Z,6
2023-12-05T06:01:09.600Z,10
2023-12-05T06:02:09.608Z,8
2023-12-05T06:03:09.669Z,10
2023-12-05T06:04:09.774Z,9
2023-12-05T06:05:09.628Z,8
2023-12-05T06:06:09.619Z,6
2023-12-05T06:07:09.602Z,7
2023-12-05T06:08:09.604Z,7
2023-12-05T06:09:09.617Z,7
2023-12-05T06:10:09.617Z,6
2023-12-05T06:11:09.598Z,6
2023-12-05T06:12:09.626Z,8
2023-12-05T06:13:09.608Z,6
2023-12-05T06:14:09.609Z,6
2023-12-05T06:15:09.621Z,6
2023-12-05T06:17:09.666Z,6
2023-12-05T06:18:09.600Z,6
2023-12-05T06:19:09.610Z,6
2023-12-05T06:20:09.594Z,7
2023-12-05T06:21:09.616Z,6
2023-12-05T06:22:09.663Z,9
2023-12-05T06:23:09.630Z,6
2023-12-05T06:24:09.615Z,8
2023-12-05T06:25:09.605Z,7
2023-12-05T06:26:09.604Z,6
2023-12-05T06:27:09.616Z,6
2023-12-05T06:28:09.623Z,5
2023-12-05T06:29:09.637Z,6
2023-12-05T06:30:17.159Z,6
2023-12-05T06:31:09.904Z,5
2023-12-05T06:32:09.591Z,5
2023-12-05T06:33:09.640Z,5
2023-12-05T06:34:09.669Z,5
2023-12-05T06:35:09.612Z,5
2023-12-05T06:36:09.625Z,5
2023-12-05T06:37:09.603Z,5
2023-12-05T06:38:09.597Z,5
2023-12-05T06:39:09.578Z,5
2023-12-05T06:40:09.631Z,5
2023-12-05T06:41:09.581Z,5
2023-12-05T06:42:09.607Z,5
2023-12-05T06:43:09.621Z,7
2023-12-05T06:44:09.620Z,5
2023-12-05T06:45:09.629Z,5
2023-12-05T06:46:09.603Z,5
2023-12-05T06:47:09.600Z,5
2023-12-05T06:48:09.665Z,5
2023-12-05T06:49:09.648Z,6
2023-12-05T06:50:09.615Z,6
2023-12-05T06:51:09.612Z,5
2023-12-05T06:52:09.589Z,4
2023-12-05T06:53:09.611Z,5
2023-12-05T06:54:09.606Z,5
2023-12-05T06:55:09.604Z,5
2023-12-05T06:57:09.600Z,5
2023-12-05T06:58:09.599Z,5
2023-12-05T06:59:09.603Z,4
2023-12-05T07:00:09.609Z,4
2023-12-05T07:01:09.602Z,5
2023-12-05T07:02:09.619Z,4
2023-12-05T07:03:09.661Z,4
2023-12-05T07:04:09.720Z,4
2023-12-05T07:05:09.724Z,6
2023-12-05T07:06:09.694Z,4
2023-12-05T07:07:09.612Z,5
2023-12-05T07:08:09.605Z,5
2023-12-05T07:09:09.634Z,4
2023-12-05T07:10:09.592Z,4
2023-12-05T07:11:09.597Z,4
2023-12-05T07:12:09.585Z,5
2023-12-05T07:13:09.606Z,4
2023-12-05T07:14:09.622Z,4
2023-12-05T07:15:09.606Z,5
2023-12-05T07:16:09.625Z,4
2023-12-05T07:17:09.606Z,4
2023-12-05T07:18:09.655Z,4
2023-12-05T07:19:09.691Z,4
2023-12-05T07:20:09.588Z,5
2023-12-05T07:21:09.643Z,4
2023-12-05T07:22:09.618Z,5
2023-12-05T07:23:09.619Z,4
2023-12-05T07:24:09.600Z,5
2023-12-05T07:25:09.612Z,4
2023-12-05T07:27:09.612Z,5
2023-12-05T07:28:09.622Z,4
2023-12-05T07:29:09.642Z,4
2023-12-05T07:30:09.619Z,4
2023-12-05T07:31:09.609Z,4
2023-12-05T07:32:09.667Z,5
2023-12-05T07:33:09.783Z,4
2023-12-05T07:34:09.655Z,10
2023-12-05T07:35:09.619Z,8
2023-12-05T07:36:09.631Z,7
2023-12-05T07:37:09.617Z,5
2023-12-05T07:38:09.593Z,4
2023-12-05T07:39:09.603Z,4
2023-12-05T07:40:09.602Z,5
2023-12-05T07:41:09.591Z,3
2023-12-05T07:42:09.602Z,4
2023-12-05T07:43:09.605Z,4
2023-12-05T07:44:09.625Z,4
2023-12-05T07:45:09.598Z,4
2023-12-05T07:46:09.598Z,4
2023-12-05T07:47:09.602Z,3
2023-12-05T07:48:09.681Z,4
2023-12-05T07:49:09.671Z,6
2023-12-05T07:50:09.595Z,4
2023-12-05T07:51:09.593Z,3
2023-12-05T07:52:09.620Z,4
2023-12-05T07:53:09.598Z,4
2023-12-05T07:54:09.632Z,3
2023-12-05T07:55:09.632Z,4
2023-12-05T07:57:09.612Z,3
2023-12-05T07:58:09.611Z,4
2023-12-05T07:59:09.631Z,3
2023-12-05T08:00:09.604Z,3
2023-12-05T08:01:09.598Z,3
2023-12-05T08:02:09.616Z,3
2023-12-05T08:03:09.653Z,3
2023-12-05T08:04:09.694Z,3
2023-12-05T08:05:09.722Z,3
2023-12-05T08:06:09.609Z,3
2023-12-05T08:07:09.593Z,3
2023-12-05T08:08:09.598Z,3
2023-12-05T08:09:09.608Z,3
2023-12-05T08:10:09.616Z,3
2023-12-05T08:11:09.603Z,3
2023-12-05T08:12:09.644Z,3
2023-12-05T08:13:09.614Z,3
2023-12-05T08:14:09.619Z,4
2023-12-05T08:15:09.601Z,3
2023-12-05T08:16:09.588Z,2
2023-12-05T08:17:09.622Z,3
2023-12-05T08:18:09.664Z,3
2023-12-05T08:19:09.666Z,3
2023-12-05T08:20:09.586Z,2
2023-12-05T08:21:09.621Z,4
2023-12-05T08:22:09.609Z,2
2023-12-05T08:23:09.605Z,2
2023-12-05T08:24:09.602Z,3
2023-12-05T08:25:09.607Z,2
2023-12-05T08:26:09.589Z,2
2023-12-05T08:27:09.586Z,3
2023-12-05T08:28:09.655Z,3
2023-12-05T08:29:09.618Z,3
2023-12-05T08:30:09.593Z,3
2023-12-05T08:31:09.599Z,2
2023-12-05T08:32:09.592Z,2
2023-12-05T08:33:09.641Z,3
2023-12-05T08:34:09.691Z,3
2023-12-05T08:36:09.661Z,2
2023-12-05T08:37:09.616Z,2
2023-12-05T08:38:09.592Z,3
2023-12-05T08:39:09.597Z,2
2023-12-05T08:40:09.617Z,2
2023-12-05T08:41:09.586Z,3
2023-12-05T08:42:09.617Z,3
2023-12-05T08:43:09.609Z,2
2023-12-05T08:44:09.615Z,2
2023-12-05T08:45:09.599Z,2
2023-12-05T08:46:10.260Z,2
2023-12-05T08:47:09.607Z,2
2023-12-05T08:48:09.676Z,2
2023-12-05T08:49:09.703Z,3
2023-12-05T08:50:09.619Z,2
2023-12-05T08:51:09.597Z,1
2023-12-05T08:52:09.602Z,3
2023-12-05T08:53:09.575Z,2
2023-12-05T08:54:09.600Z,2
2023-12-05T08:55:09.605Z,3
2023-12-05T08:56:09.624Z,2
2023-12-05T08:57:09.605Z,3
2023-12-05T08:58:09.604Z,3
2023-12-05T08:59:09.592Z,3
2023-12-05T09:00:09.590Z,2
2023-12-05T09:01:09.599Z,2
2023-12-05T09:02:09.647Z,3
2023-12-05T09:03:09.668Z,4
2023-12-05T09:04:09.755Z,4
2023-12-05T09:05:09.715Z,4
2023-12-05T09:06:09.663Z,4
2023-12-05T09:07:09.738Z,2
2023-12-05T09:08:09.773Z,2
2023-12-05T09:09:09.597Z,2
2023-12-05T09:10:09.649Z,2
2023-12-05T09:11:09.600Z,3
2023-12-05T09:12:09.656Z,3
2023-12-05T09:13:09.592Z,2
2023-12-05T09:14:09.597Z,2
2023-12-05T09:15:09.612Z,2
2023-12-05T09:16:09.605Z,3
2023-12-05T09:17:09.605Z,4
2023-12-05T09:18:09.638Z,3
2023-12-05T09:19:09.764Z,2
2023-12-05T09:20:09.583Z,3
2023-12-05T09:21:09.616Z,4
2023-12-05T09:22:09.605Z,2
2023-12-05T09:23:09.592Z,2
2023-12-05T09:24:09.609Z,2
2023-12-05T09:25:09.591Z,2
2023-12-05T09:27:09.594Z,1
2023-12-05T09:28:09.589Z,3
2023-12-05T09:29:09.805Z,2
2023-12-05T09:30:09.646Z,1
2023-12-05T09:31:09.602Z,2
2023-12-05T09:32:09.610Z,2
2023-12-05T09:33:09.644Z,1
2023-12-05T09:34:09.673Z,2
2023-12-05T09:35:09.600Z,2
2023-12-05T09:36:09.606Z,2
2023-12-05T09:37:10.566Z,1
2023-12-05T09:38:09.623Z,1
2023-12-05T09:39:09.603Z,1
2023-12-05T09:40:09.599Z,2
2023-12-05T09:41:09.594Z,1
2023-12-05T09:42:09.662Z,2
2023-12-05T09:43:09.654Z,2
2023-12-05T09:44:09.619Z,2
2023-12-05T09:45:09.589Z,1
2023-12-05T09:46:09.621Z,2
2023-12-05T09:47:09.599Z,2
2023-12-05T09:48:09.846Z,1
2023-12-05T09:49:09.822Z,2
2023-12-05T09:50:09.724Z,1
2023-12-05T09:51:09.605Z,1
2023-12-05T09:52:09.605Z,1
2023-12-05T09:53:09.593Z,3
2023-12-05T09:54:10.643Z,2
2023-12-05T09:55:09.593Z,1
2023-12-05T09:56:09.629Z,1
2023-12-05T09:57:09.610Z,1
2023-12-05T09:58:09.610Z,2
2023-12-05T09:59:09.617Z,2
2023-12-05T10:00:09.599Z,2
2023-12-05T10:01:09.590Z,2
2023-12-05T10:02:09.822Z,2
2023-12-05T10:03:09.657Z,1
2023-12-05T10:04:09.731Z,1
2023-12-05T10:05:09.657Z,2
2023-12-05T10:06:09.634Z,2
2023-12-05T10:07:09.607Z,2
2023-12-05T10:08:09.599Z,3
2023-12-05T10:09:09.598Z,2
2023-12-05T10:10:09.610Z,3
2023-12-05T10:11:09.607Z,2
2023-12-05T10:12:09.621Z,1
2023-12-05T10:13:09.599Z,2
2023-12-05T10:14:09.617Z,2
2023-12-05T10:15:09.620Z,2
2023-12-05T10:17:09.641Z,2
2023-12-05T10:18:09.724Z,3
2023-12-05T10:19:09.774Z,2
2023-12-05T10:20:09.693Z,1
2023-12-05T10:21:09.652Z,2
2023-12-05T10:22:09.611Z,1
2023-12-05T10:23:09.610Z,2
2023-12-05T10:24:09.592Z,1
2023-12-05T10:25:09.643Z,2
2023-12-05T10:26:09.672Z,2
2023-12-05T10:27:09.601Z,1
2023-12-05T10:28:09.622Z,2
2023-12-05T10:29:09.792Z,1
2023-12-05T10:30:09.610Z,1
2023-12-05T10:31:09.604Z,1
2023-12-05T10:32:09.675Z,3
2023-12-05T10:33:09.820Z,1
2023-12-05T10:34:09.860Z,1
2023-12-05T10:35:09.854Z,1
2023-12-05T10:36:09.611Z,2
2023-12-05T10:37:09.590Z,3
2023-12-05T10:38:09.605Z,2
2023-12-05T10:39:09.585Z,2
2023-12-05T10:40:09.601Z,1
2023-12-05T10:41:09.617Z,2
2023-12-05T10:42:09.606Z,2
2023-12-05T10:43:09.619Z,2
2023-12-05T10:44:09.601Z,1
2023-12-05T10:45:09.604Z,3
2023-12-05T10:47:09.588Z,2
2023-12-05T10:48:09.683Z,3
2023-12-05T10:49:09.697Z,1
2023-12-05T10:50:09.601Z,1
2023-12-05T10:51:09.607Z,2
2023-12-05T10:52:09.584Z,1
2023-12-05T10:53:09.600Z,2
2023-12-05T10:54:09.608Z,2
2023-12-05T10:55:09.729Z,2
2023-12-05T10:56:09.589Z,1
2023-12-05T10:57:09.601Z,2
2023-12-05T10:58:09.586Z,2
2023-12-05T10:59:09.602Z,2
2023-12-05T11:00:09.618Z,4
2023-12-05T11:01:09.654Z,2
2023-12-05T11:02:09.653Z,1
2023-12-05T11:03:09.640Z,2
2023-12-05T11:04:09.704Z,1
2023-12-05T11:05:09.594Z,2
2023-12-05T11:07:09.647Z,1
2023-12-05T11:08:09.619Z,2
2023-12-05T11:09:09.596Z,2
2023-12-05T11:10:09.683Z,1
2023-12-05T11:11:09.603Z,3
2023-12-05T11:12:09.594Z,2
2023-12-05T11:13:09.614Z,2
2023-12-05T11:14:09.619Z,1
2023-12-05T11:15:09.598Z,2
2023-12-05T11:16:09.659Z,2
2023-12-05T11:17:09.638Z,2
2023-12-05T11:18:09.645Z,1
2023-12-05T11:19:09.645Z,2
2023-12-05T11:20:09.597Z,3
2023-12-05T11:21:09.632Z,3
2023-12-05T11:22:09.618Z,2
2023-12-05T11:23:09.599Z,4
2023-12-05T11:24:09.601Z,3
2023-12-05T11:25:09.588Z,2
2023-12-05T11:26:09.600Z,3
2023-12-05T11:27:09.614Z,3
2023-12-05T11:28:09.606Z,2
2023-12-05T11:29:09.619Z,3
2023-12-05T11:30:09.611Z,2
2023-12-05T11:31:09.627Z,2
2023-12-05T11:32:09.606Z,4
2023-12-05T11:33:09.676Z,2
2023-12-05T11:34:09.837Z,2
2023-12-05T11:35:09.899Z,1
2023-12-05T11:36:09.622Z,2
2023-12-05T11:37:09.645Z,2
2023-12-05T11:38:09.608Z,2
2023-12-05T11:39:09.688Z,2
2023-12-05T11:40:09.597Z,3
2023-12-05T11:41:09.610Z,1
2023-12-05T11:42:09.601Z,2
2023-12-05T11:43:09.629Z,2
2023-12-05T11:44:09.638Z,2
2023-12-05T11:45:09.597Z,2
2023-12-05T11:46:09.592Z,3
2023-12-05T11:48:11.891Z,2
2023-12-05T11:49:09.681Z,2
2023-12-05T11:50:09.645Z,1
2023-12-05T11:51:09.622Z,1
2023-12-05T11:52:09.608Z,2
2023-12-05T11:53:09.613Z,2
2023-12-05T11:54:09.601Z,2
2023-12-05T11:55:09.669Z,2
2023-12-05T11:57:11.523Z,1
2023-12-05T11:58:09.620Z,1
2023-12-05T11:59:09.603Z,2
2023-12-05T12:00:09.593Z,1
2023-12-05T12:01:09.753Z,1
2023-12-05T12:02:09.709Z,1
2023-12-05T12:03:09.626Z,1
2023-12-05T12:04:09.648Z,1
2023-12-05T12:05:09.607Z,2
2023-12-05T12:06:09.616Z,1
2023-12-05T12:07:09.722Z,1
2023-12-05T12:09:09.596Z,3
2023-12-05T12:10:09.601Z,5
2023-12-05T12:11:09.586Z,4
2023-12-05T12:12:09.623Z,8
2023-12-05T12:13:09.718Z,8
2023-12-05T12:14:09.597Z,8
2023-12-05T12:15:09.660Z,11
2023-12-05T12:16:09.648Z,5
2023-12-05T12:17:09.578Z,8
2023-12-05T12:18:09.868Z,3
2023-12-05T12:19:09.749Z,2
2023-12-05T12:20:09.706Z,1
2023-12-05T12:21:09.612Z,2
2023-12-05T12:22:09.681Z,2
2023-12-05T12:24:09.597Z,1
2023-12-05T12:25:09.585Z,1
2023-12-05T12:26:09.587Z,1
2023-12-05T12:27:09.625Z,1
2023-12-05T12:28:09.600Z,1
2023-12-05T12:29:09.645Z,1
2023-12-05T12:30:09.651Z,2
2023-12-05T12:31:09.710Z,2
2023-12-05T12:32:09.818Z,1
2023-12-05T12:33:09.727Z,1
2023-12-05T12:34:10.022Z,1
2023-12-05T12:35:09.615Z,3
2023-12-05T12:36:09.621Z,1
2023-12-05T12:37:17.619Z,1
2023-12-05T12:38:09.600Z,1
2023-12-05T12:39:09.610Z,1
2023-12-05T12:40:09.732Z,1
2023-12-05T12:41:11.130Z,1
2023-12-05T12:42:09.649Z,1
2023-12-05T12:43:09.684Z,1
2023-12-05T12:44:09.614Z,1
2023-12-05T12:45:09.662Z,1
2023-12-05T12:46:09.733Z,1
2023-12-05T12:47:12.351Z,1
2023-12-05T12:48:09.712Z,1
2023-12-05T12:49:09.703Z,1
2023-12-05T12:50:09.611Z,1
2023-12-05T12:51:09.593Z,1
2023-12-05T12:52:09.622Z,1
2023-12-05T12:53:09.613Z,2
2023-12-05T12:54:09.624Z,1
2023-12-05T12:55:09.676Z,1
2023-12-05T12:56:09.613Z,1
2023-12-05T12:57:09.613Z,1
2023-12-05T12:58:09.636Z,1
2023-12-05T12:59:12.196Z,1
2023-12-05T13:00:30.660Z,1
2023-12-05T13:01:09.696Z,1
2023-12-05T13:02:09.741Z,1
2023-12-05T13:03:09.703Z,1
2023-12-05T13:04:09.690Z,1
2023-12-05T13:05:09.780Z,1
2023-12-05T13:06:09.648Z,1
2023-12-05T13:07:09.704Z,1
2023-12-05T13:08:09.801Z,1
2023-12-05T13:09:09.603Z,1
2023-12-05T13:10:09.661Z,1
2023-12-05T13:11:09.608Z,1
2023-12-05T13:12:09.592Z,1
2023-12-05T13:13:09.624Z,1
2023-12-05T13:14:09.625Z,2
2023-12-05T13:15:12.643Z,1
2023-12-05T13:16:09.686Z,1
2023-12-05T13:17:09.635Z,1
2023-12-05T13:18:09.719Z,1
2023-12-05T13:19:09.679Z,1
2023-12-05T13:20:09.617Z,1
2023-12-05T13:21:10.605Z,1
2023-12-05T13:22:09.631Z,2
2023-12-05T13:23:09.625Z,1
2023-12-05T13:24:09.621Z,1
2023-12-05T13:25:09.670Z,1
2023-12-05T13:27:12.055Z,1
2023-12-05T13:28:09.614Z,2
2023-12-05T13:29:09.605Z,1
2023-12-05T13:30:09.609Z,2
2023-12-05T13:31:09.629Z,1
2023-12-05T13:32:09.602Z,2
2023-12-05T13:33:12.946Z,1
2023-12-05T13:34:09.701Z,1
2023-12-05T13:35:09.701Z,1
2023-12-05T13:36:09.609Z,2
2023-12-05T13:37:09.715Z,1
2023-12-05T13:38:09.598Z,2
2023-12-05T13:39:12.516Z,1
2023-12-05T13:40:09.636Z,3
2023-12-05T13:41:09.587Z,2
2023-12-05T13:42:09.601Z,2
2023-12-05T13:43:09.606Z,1
2023-12-05T13:44:09.631Z,2
2023-12-05T13:45:09.603Z,1
2023-12-05T13:46:09.641Z,2
2023-12-05T13:47:09.624Z,2
2023-12-05T13:48:09.651Z,2
2023-12-05T13:49:09.732Z,2
2023-12-05T13:50:09.615Z,1
2023-12-05T13:51:09.588Z,2
2023-12-05T13:52:09.637Z,2
2023-12-05T13:53:09.640Z,2
2023-12-05T13:54:09.611Z,2
2023-12-05T13:55:09.659Z,2
2023-12-05T13:56:09.621Z,1
2023-12-05T13:57:09.612Z,4
2023-12-05T13:58:09.666Z,2
2023-12-05T13:59:09.624Z,2
2023-12-05T14:00:09.636Z,2
2023-12-05T14:01:09.694Z,1
2023-12-05T14:02:09.620Z,1
2023-12-05T14:03:09.624Z,1
2023-12-05T14:04:09.755Z,1
2023-12-05T14:05:09.780Z,1
2023-12-05T14:07:09.642Z,1
2023-12-05T14:08:09.593Z,1
2023-12-05T14:09:09.598Z,1
2023-12-05T14:10:09.710Z,1
2023-12-05T14:11:09.603Z,1
2023-12-05T14:12:09.614Z,1
2023-12-05T14:13:09.634Z,1
2023-12-05T14:14:09.626Z,2
2023-12-05T14:15:09.644Z,1
2023-12-05T14:16:09.612Z,1
2023-12-05T14:17:09.596Z,1
2023-12-05T14:18:09.670Z,2
2023-12-05T14:19:09.692Z,1
2023-12-05T14:20:09.618Z,4
2023-12-05T14:21:09.615Z,5
2023-12-05T14:22:09.642Z,6
2023-12-05T14:23:09.657Z,6
2023-12-05T14:24:09.624Z,8
2023-12-05T14:25:09.639Z,6
2023-12-05T14:26:09.594Z,6
2023-12-05T14:27:09.600Z,8
2023-12-05T14:28:09.683Z,5
2023-12-05T14:29:09.793Z,3
2023-12-05T14:30:10.982Z,2
2023-12-05T14:31:09.636Z,1
2023-12-05T14:32:09.594Z,1
2023-12-05T14:33:09.664Z,1
2023-12-05T14:34:09.810Z,3
2023-12-05T14:36:09.615Z,1
2023-12-05T14:37:09.624Z,2
2023-12-05T14:38:09.624Z,2
2023-12-05T14:39:11.134Z,3
2023-12-05T14:40:09.705Z,1
2023-12-05T14:41:09.600Z,1
2023-12-05T14:42:09.607Z,1
2023-12-05T14:43:09.697Z,1
2023-12-05T14:44:09.613Z,1
2023-12-05T14:45:09.754Z,1
2023-12-05T14:46:09.618Z,2
2023-12-05T14:47:09.601Z,2
2023-12-05T14:48:09.848Z,1
2023-12-05T14:49:09.742Z,1
2023-12-05T14:50:09.591Z,1
2023-12-05T14:51:09.610Z,1
2023-12-05T14:52:09.659Z,1
2023-12-05T14:53:09.629Z,2
2023-12-05T14:54:09.603Z,2
2023-12-05T14:55:09.643Z,2
2023-12-05T14:56:09.591Z,1
2023-12-05T14:57:09.617Z,2
2023-12-05T14:58:09.773Z,2
2023-12-05T14:59:09.609Z,2
2023-12-05T15:00:09.648Z,1
2023-12-05T15:01:09.662Z,1
2023-12-05T15:02:09.660Z,1
2023-12-05T15:03:09.621Z,1
2023-12-05T15:04:09.687Z,2
2023-12-05T15:05:09.629Z,1
2023-12-05T15:06:09.636Z,2
2023-12-05T15:07:09.651Z,2
2023-12-05T15:09:09.586Z,2
2023-12-05T15:10:09.652Z,2
2023-12-05T15:11:09.610Z,2